Time;durP1;ratioP1;P1;durP2;ratioP2;P2;SDS_P1;SDS_P2;PMS_P1;PMS_P2;Temp;Humidity;BMP_temperature;BMP_pressure;BME280_temperature;BME280_humidity;BME280_pressure;Samples;Min_cycle;Max_cycle;Signal;HPM_P1;HPM_P2
2023/08/04 00:01:21;;;;;;;18.63;12.90;;;;;;;-143.84;90.67;45081.44;5109619;28;20480;-61
2023/08/04 00:03:48;;;;;;;13.90;12.67;;;;;;;-143.84;90.63;45068.13;5109672;28;20474;-61
2023/08/04 00:06:15;;;;;;;14.27;12.97;;;;;;;-143.84;90.88;45047.16;5109098;28;20487;-61
2023/08/04 00:08:42;;;;;;;14.50;13.07;;;;;;;-143.84;90.93;45049.06;5109472;28;20488;-61
2023/08/04 00:11:10;;;;;;;18.10;14.30;;;;;;;-143.84;91.44;45047.16;5109530;28;20501;-61
2023/08/04 00:13:38;;;;;;;15.57;14.13;;;;;;;-143.84;91.48;45047.16;5109274;28;20446;-61
2023/08/04 00:16:06;;;;;;;15.13;13.73;;;;;;;-143.84;91.40;45066.22;5109682;28;20496;-60
2023/08/04 00:18:33;;;;;;;16.67;13.90;;;;;;;-143.84;91.69;45068.13;5109434;28;20936;-61
2023/08/04 00:21:01;;;;;;;15.20;13.70;;;;;;;-143.84;91.49;45052.88;5109340;28;20438;-60
2023/08/04 00:23:28;;;;;;;13.80;12.60;;;;;;;-143.84;91.30;45052.88;5109389;28;20949;-61
2023/08/04 00:25:55;;;;;;;14.80;13.40;;;;;;;-143.84;91.23;45052.88;5109459;28;20509;-61
2023/08/04 00:28:22;;;;;;;17.97;13.67;;;;;;;-143.84;91.08;45028.13;5109359;28;20443;-61
2023/08/04 00:30:51;;;;;;;13.70;12.27;;;;;;;-143.84;91.02;45052.88;5109309;28;20477;-61
2023/08/04 00:33:18;;;;;;;13.00;11.70;;;;;;;-143.84;91.12;45049.06;5109448;28;20462;-61
2023/08/04 00:35:45;;;;;;;13.93;12.50;;;;;;;-143.84;90.98;45068.13;5109507;28;20443;-61
2023/08/04 00:38:12;;;;;;;15.20;12.83;;;;;;;-143.84;90.89;45081.44;5109380;28;20495;-61
2023/08/04 00:40:39;;;;;;;13.93;12.53;;;;;;;-143.84;90.86;45035.75;5109064;28;20442;-61
2023/08/04 00:43:07;;;;;;;14.30;13.00;;;;;;;-143.84;90.81;45085.25;5109222;28;20492;-61
2023/08/04 00:45:34;;;;;;;13.47;12.17;;;;;;;-143.84;91.01;45066.22;5109259;28;20441;-60
2023/08/04 00:48:03;;;;;;;13.67;12.37;;;;;;;-143.84;90.80;45073.81;5110370;28;20482;-60
2023/08/04 00:50:32;;;;;;;13.53;12.33;;;;;;;-143.84;90.82;45049.06;5112750;28;20518;-61
2023/08/04 00:53:01;;;;;;;13.57;12.20;;;;;;;-143.84;90.63;45079.53;5112895;28;20453;-61
2023/08/04 00:55:28;;;;;;;13.77;12.47;;;;;;;-143.84;90.63;45052.88;5112824;28;20788;-60
2023/08/04 00:57:57;;;;;;;15.17;12.53;;;;;;;-143.84;90.91;45045.25;5113102;28;20852;-61
2023/08/04 01:00:24;;;;;;;15.00;13.40;;;;;;;-143.84;91.40;45071.91;5113095;28;20447;-61
2023/08/04 01:02:51;;;;;;;16.73;14.73;;;;;;;-143.84;91.73;45043.34;5113014;28;20463;-61
2023/08/04 01:05:20;;;;;;;13.90;12.57;;;;;;;-143.84;91.94;45068.13;5112785;28;20900;-60
2023/08/04 01:07:57;;;;;;;13.83;12.43;;;;;;;-143.84;91.54;45068.13;5112681;28;20446;-61
2023/08/04 01:10:28;;;;;;;14.83;13.33;;;;;;;-143.84;91.15;45071.91;5113001;28;20515;-61
2023/08/04 01:12:58;;;;;;;20.93;15.30;;;;;;;-143.84;92.06;45052.88;5112699;28;20439;-61
2023/08/04 01:15:26;;;;;;;19.93;16.70;;;;;;;-143.84;92.75;45064.31;5112462;28;20447;-61
2023/08/04 01:17:55;;;;;;;21.10;18.87;;;;;;;-143.84;93.51;45049.06;5112299;28;20467;-60
2023/08/04 01:20:24;;;;;;;22.87;16.27;;;;;;;-143.84;94.31;45058.59;5112508;28;20438;-61
2023/08/04 01:22:53;;;;;;;20.13;17.63;;;;;;;-143.84;94.12;45066.22;5113199;28;20439;-61
2023/08/04 01:25:25;;;;;;;23.50;15.33;;;;;;;-143.84;94.70;45050.97;5112935;28;20442;-60
2023/08/04 01:27:56;;;;;;;22.53;15.60;;;;;;;-143.84;94.44;45047.16;5112598;28;20438;-61
2023/08/04 01:30:25;;;;;;;23.07;17.50;;;;;;;-143.84;94.54;45070.00;5112277;28;20543;-60
2023/08/04 01:32:52;;;;;;;17.67;15.50;;;;;;;-143.84;94.67;45052.88;5112186;28;20503;-60
2023/08/04 01:35:20;;;;;;;17.80;16.20;;;;;;;-143.84;94.71;45037.66;5112467;28;20944;-60
2023/08/04 01:37:47;;;;;;;16.17;14.40;;;;;;;-143.84;94.39;45052.88;5112381;28;20495;-61
2023/08/04 01:40:16;;;;;;;14.93;13.30;;;;;;;-143.84;94.04;45045.25;5112236;28;20500;-61
2023/08/04 01:42:43;;;;;;;15.33;13.77;;;;;;;-143.84;93.65;45064.31;5112616;28;20857;-60
2023/08/04 01:45:10;;;;;;;15.83;13.83;;;;;;;-143.84;92.77;45056.69;5112103;28;20431;-61
2023/08/04 01:47:39;;;;;;;15.83;14.33;;;;;;;-143.84;93.01;45058.59;5112000;28;20840;-61
2023/08/04 01:50:08;;;;;;;16.40;14.53;;;;;;;-143.84;93.12;45052.88;5111944;28;20495;-61
2023/08/04 01:52:35;;;;;;;17.57;15.10;;;;;;;-143.84;93.17;45071.91;5112228;28;20789;-61
2023/08/04 01:55:02;;;;;;;17.90;15.90;;;;;;;-143.84;93.50;45075.72;5112025;28;20498;-61
2023/08/04 01:57:31;;;;;;;16.37;14.63;;;;;;;-143.84;93.56;45026.22;5112135;28;20495;-61
2023/08/04 01:59:58;;;;;;;17.13;15.43;;;;;;;-143.84;93.57;45089.06;5111739;28;20439;-61
2023/08/04 02:02:25;;;;;;;18.43;16.83;;;;;;;-143.84;93.58;45075.72;5112311;28;20930;-61
2023/08/04 02:04:52;;;;;;;21.23;19.20;;;;;;;-143.84;93.71;45068.13;5111720;28;20527;-61
2023/08/04 02:07:19;;;;;;;15.50;14.20;;;;;;;-143.84;93.97;45079.53;5112048;28;20439;-60
2023/08/04 02:09:47;;;;;;;19.07;17.07;;;;;;;-143.84;94.20;45056.69;5111771;28;20430;-61
2023/08/04 02:12:14;;;;;;;20.17;18.27;;;;;;;-143.84;94.34;45070.00;5111790;28;20471;-61
2023/08/04 02:14:42;;;;;;;22.00;18.90;;;;;;;-143.84;94.85;45071.91;5111737;28;20440;-61
2023/08/04 02:17:11;;;;;;;19.73;17.73;;;;;;;-143.84;94.96;45094.78;5111779;28;20508;-60
2023/08/04 02:19:39;;;;;;;23.47;20.83;;;;;;;-143.84;94.82;45045.25;5111559;28;20442;-61
2023/08/04 02:22:06;;;;;;;20.20;18.27;;;;;;;-143.84;95.08;45089.06;5111617;28;20443;-60
2023/08/04 02:24:33;;;;;;;35.00;20.37;;;;;;;-143.84;95.28;45094.78;5111238;28;20492;-61
2023/08/04 02:27:00;;;;;;;27.07;21.13;;;;;;;-143.84;95.42;45056.69;5111180;28;20443;-60
2023/08/04 02:29:28;;;;;;;28.10;20.30;;;;;;;-143.84;95.53;45056.69;5111337;28;20506;-61
2023/08/04 02:31:56;;;;;;;24.07;21.77;;;;;;;-143.84;95.87;45066.22;5111239;28;20475;-51
2023/08/04 02:34:23;;;;;;;21.27;19.27;;;;;;;-143.84;95.87;45083.34;5110983;28;20443;-52
2023/08/04 02:36:51;;;;;;;21.40;18.80;;;;;;;-143.84;95.96;45079.53;5110962;28;20467;-52
2023/08/04 02:39:18;;;;;;;21.80;19.70;;;;;;;-143.84;95.73;45064.31;5110914;28;20445;-52
2023/08/04 02:41:45;;;;;;;18.97;16.87;;;;;;;-143.84;95.70;45064.31;5110694;28;20432;-52
2023/08/04 02:44:12;;;;;;;20.67;18.67;;;;;;;-143.84;95.42;45052.88;5110718;28;20446;-52
2023/08/04 02:46:39;;;;;;;20.47;18.40;;;;;;;-143.84;95.28;45054.78;5110862;28;20443;-52
2023/08/04 02:49:08;;;;;;;19.67;17.87;;;;;;;-143.84;95.26;45064.31;5110742;28;21026;-52
2023/08/04 02:51:35;;;;;;;22.03;18.90;;;;;;;-143.84;95.10;45060.50;5110635;28;20478;-52
2023/08/04 02:54:03;;;;;;;21.73;19.57;;;;;;;-143.84;94.83;45083.34;5110450;28;20435;-52
2023/08/04 02:56:30;;;;;;;22.47;18.90;;;;;;;-143.84;94.56;45085.25;5110486;28;20516;-52
2023/08/04 02:58:57;;;;;;;19.73;17.73;;;;;;;-143.84;94.31;45070.00;5110506;28;20825;-52
2023/08/04 03:01:24;;;;;;;27.97;18.20;;;;;;;-143.84;94.14;45033.84;5110341;28;20444;-51
2023/08/04 03:03:51;;;;;;;23.53;17.20;;;;;;;-143.84;93.72;45070.00;5110588;28;20450;-52
2023/08/04 03:06:20;;;;;;;18.10;16.30;;;;;;;-143.84;93.51;45075.72;5109731;28;20487;-51
2023/08/04 03:08:47;;;;;;;23.53;16.77;;;;;;;-143.84;93.17;45081.44;5110267;28;20509;-51
2023/08/04 03:11:14;;;;;;;18.03;16.10;;;;;;;-143.84;93.07;45068.13;5109222;28;20844;-52
2023/08/04 03:13:41;;;;;;;18.27;16.67;;;;;;;-143.84;93.18;45054.78;5109876;28;20430;-52
2023/08/04 03:16:08;;;;;;;18.67;16.87;;;;;;;-143.84;93.05;45068.13;5110294;28;20438;-52
2023/08/04 03:18:35;;;;;;;18.23;16.63;;;;;;;-143.84;93.14;45062.41;5109955;28;20438;-52
2023/08/04 03:21:03;;;;;;;19.90;17.30;;;;;;;-143.84;92.80;45066.22;5110221;28;20439;-53
2023/08/04 03:23:32;;;;;;;19.50;17.00;;;;;;;-143.84;92.77;45062.41;5109954;28;20431;-52
2023/08/04 03:25:59;;;;;;;25.77;19.80;;;;;;;-143.84;93.08;45052.88;5110417;28;20470;-52
2023/08/04 03:28:26;;;;;;;24.90;22.47;;;;;;;-143.84;93.37;45075.72;5109893;28;20449;-53
2023/08/04 03:30:53;;;;;;;29.87;26.97;;;;;;;-143.84;93.85;45071.91;5109888;28;20431;-51
2023/08/04 03:33:20;;;;;;;28.13;25.23;;;;;;;-143.84;94.25;45079.53;5109753;28;20443;-53
2023/08/04 03:35:47;;;;;;;26.60;23.80;;;;;;;-143.84;94.50;45056.69;5109743;28;20437;-52
2023/08/04 03:38:15;;;;;;;25.47;22.97;;;;;;;-143.84;94.26;45022.41;5109694;28;20504;-51
2023/08/04 03:40:43;;;;;;;24.90;20.97;;;;;;;-143.84;94.09;45068.13;5109760;28;20899;-51
2023/08/04 03:43:11;;;;;;;23.30;19.27;;;;;;;-143.84;93.65;45047.16;5109774;28;20431;-51
2023/08/04 03:45:38;;;;;;;19.00;17.40;;;;;;;-143.84;92.10;45043.34;5109510;28;20515;-52
2023/08/04 03:48:06;;;;;;;18.93;17.07;;;;;;;-143.84;90.13;45039.53;5109639;28;20447;-52
2023/08/04 03:50:33;;;;;;;18.37;15.90;;;;;;;-143.84;88.12;45018.59;5109790;28;20434;-52
2023/08/04 03:53:00;;;;;;;16.63;14.83;;;;;;;-143.84;85.48;45030.03;5109608;28;21364;-52
2023/08/04 03:55:28;;;;;;;16.67;15.03;;;;;;;-143.84;83.97;45030.03;5109735;28;20500;-52
2023/08/04 03:57:57;;;;;;;17.43;15.73;;;;;;;-143.84;82.05;45012.88;5109528;28;20428;-52
2023/08/04 04:00:24;;;;;;;17.53;15.70;;;;;;;-143.84;80.28;45007.19;5109509;28;20450;-52
2023/08/04 04:02:51;;;;;;;16.47;14.73;;;;;;;-143.84;78.92;44990.03;5109270;28;20440;-52
2023/08/04 04:05:18;;;;;;;18.63;13.20;;;;;;;-143.84;77.30;45009.09;5108957;28;20490;-56
2023/08/04 04:07:45;;;;;;;20.37;14.37;;;;;;;-143.84;76.15;44988.13;5109273;28;20444;-57
2023/08/04 04:10:12;;;;;;;22.30;15.53;;;;;;;-143.84;74.61;44995.75;5109470;28;20948;-56
2023/08/04 04:12:39;;;;;;;17.73;16.03;;;;;;;-143.84;74.72;44991.94;5108958;28;20539;-57
2023/08/04 04:15:09;;;;;;;21.67;15.57;;;;;;;-143.84;73.62;44986.22;5109388;28;20520;-57
2023/08/04 04:17:37;;;;;;;13.93;12.80;;;;;;;-143.84;73.13;44999.56;5109225;28;20439;-60
2023/08/04 04:20:04;;;;;;;15.40;13.50;;;;;;;-143.84;72.17;44995.75;5109447;28;20446;-57
2023/08/04 04:22:33;;;;;;;21.67;13.27;;;;;;;-143.84;72.17;44993.84;5111423;28;20496;-57
2023/08/04 04:25:02;;;;;;;13.83;12.33;;;;;;;-143.84;70.73;44946.25;5113352;28;20445;-57
2023/08/04 04:27:29;;;;;;;15.90;12.20;;;;;;;-143.84;70.65;44971.00;5113217;28;20460;-57
2023/08/04 04:29:56;;;;;;;16.37;14.40;;;;;;;-143.84;69.92;44957.66;5113177;28;20431;-57
2023/08/04 04:32:24;;;;;;;15.27;12.87;;;;;;;-143.84;69.42;44942.44;5113432;28;20482;-57
2023/08/04 04:34:51;;;;;;;14.53;13.20;;;;;;;-143.84;68.75;44923.41;5113238;28;20497;-57
2023/08/04 04:37:19;;;;;;;14.73;13.17;;;;;;;-143.84;68.89;44971.00;5113083;28;20447;-57
2023/08/04 04:39:47;;;;;;;16.37;12.80;;;;;;;-143.84;69.94;44969.09;5113028;28;20461;-57
2023/08/04 04:42:16;;;;;;;16.53;14.23;;;;;;;-143.84;69.38;44942.44;5113125;28;20475;-57
2023/08/04 04:44:43;;;;;;;21.80;13.40;;;;;;;-143.84;68.61;44946.25;5113003;28;20474;-57
2023/08/04 04:47:10;;;;;;;14.77;13.40;;;;;;;-143.84;68.89;44923.41;5113244;28;20438;-57
2023/08/04 04:49:39;;;;;;;18.43;14.10;;;;;;;-143.84;68.88;44948.16;5113043;28;20435;-57
2023/08/04 04:52:07;;;;;;;21.23;13.37;;;;;;;-143.84;69.17;44942.44;5112679;28;20543;-57
2023/08/04 04:54:34;;;;;;;16.07;14.20;;;;;;;-143.84;70.26;44944.34;5112724;28;20499;-57
2023/08/04 04:57:01;;;;;;;12.10;11.00;;;;;;;-143.84;71.08;44946.25;5112710;28;20940;-57
2023/08/04 04:59:28;;;;;;;17.73;11.80;;;;;;;-143.84;71.06;44934.81;5112674;28;20504;-57
2023/08/04 05:01:55;;;;;;;13.83;12.33;;;;;;;-143.84;70.77;44915.78;5112826;28;20439;-57
2023/08/04 05:04:22;;;;;;;13.97;12.67;;;;;;;-143.84;70.61;44925.31;5112879;28;20442;-57
2023/08/04 05:06:51;;;;;;;12.70;11.40;;;;;;;-143.84;70.46;44957.66;5112406;28;20493;-57
2023/08/04 05:09:18;;;;;;;13.17;11.97;;;;;;;-143.84;70.00;44927.19;5112741;28;20434;-57
2023/08/04 05:11:45;;;;;;;18.83;12.20;;;;;;;-143.84;69.30;44963.38;5112688;28;20474;-57
2023/08/04 05:14:12;;;;;;;17.80;13.10;;;;;;;-143.84;68.68;44932.91;5112650;28;20439;-57
2023/08/04 05:16:40;;;;;;;13.93;12.70;;;;;;;-143.84;69.34;44896.75;5112836;28;21300;-57
2023/08/04 05:19:07;;;;;;;12.93;11.43;;;;;;;-143.84;68.26;44915.78;5112575;28;20482;-57
2023/08/04 05:21:35;;;;;;;15.57;11.07;;;;;;;-143.84;68.48;44929.09;5112441;28;20436;-57
2023/08/04 05:24:03;;;;;;;13.83;11.90;;;;;;;-143.84;67.10;44919.59;5111871;28;20468;-57
2023/08/04 05:26:30;;;;;;;13.73;10.60;;;;;;;-143.84;66.98;44892.94;5112234;28;20500;-57
2023/08/04 05:28:58;;;;;;;12.43;11.33;;;;;;;-143.84;67.44;44911.97;5111783;28;20443;-57
2023/08/04 05:31:25;;;;;;;12.37;10.47;;;;;;;-143.84;64.99;44925.31;5112127;28;20439;-57
2023/08/04 05:33:52;;;;;;;12.37;9.90;;;;;;;-143.84;65.62;44932.91;5111190;28;20472;-57
2023/08/04 05:36:19;;;;;;;10.83;9.90;;;;;;;-143.84;66.44;44931.00;5111890;28;20879;-57
2023/08/04 05:38:46;;;;;;;14.97;10.40;;;;;;;-143.84;66.69;44917.69;5111463;28;20471;-57
2023/08/04 05:41:14;;;;;;;9.90;8.77;;;;;;;-143.84;66.23;44917.69;5111630;28;20504;-57
2023/08/04 05:43:41;;;;;;;10.90;9.80;;;;;;;-143.84;66.35;44898.66;5111740;28;20439;-57
2023/08/04 05:46:12;;;;;;;8.90;7.83;;;;;;;-143.84;65.28;44913.88;5111937;28;20495;-57
2023/08/04 05:48:40;;;;;;;8.37;6.13;;;;;;;-143.84;61.12;44908.16;5111787;28;20953;-57
2023/08/04 05:51:07;;;;;;;8.10;5.33;;;;;;;-143.84;59.62;44906.25;5111742;28;20469;-57
2023/08/04 05:53:34;;;;;;;6.73;6.23;;;;;;;-143.84;59.64;44921.50;5111559;28;20939;-57
2023/08/04 05:56:01;;;;;;;7.70;6.10;;;;;;;-143.84;59.06;44881.50;5111791;28;20499;-57
2023/08/04 05:58:30;;;;;;;7.80;7.00;;;;;;;-143.84;60.23;44891.03;5111975;28;20500;-57
2023/08/04 06:00:57;;;;;;;10.37;6.50;;;;;;;-143.84;59.40;44881.50;5111555;28;20456;-57
2023/08/04 06:03:24;;;;;;;13.33;6.77;;;;;;;-143.84;57.33;44873.88;5111715;28;20516;-57
2023/08/04 06:05:51;;;;;;;7.00;6.43;;;;;;;-143.84;56.52;44862.47;5111151;28;20483;-57
2023/08/04 06:08:18;;;;;;;8.17;6.23;;;;;;;-143.84;54.81;44881.50;5111626;28;20852;-57
2023/08/04 06:10:45;;;;;;;7.70;6.27;;;;;;;-143.84;55.88;44852.94;5111456;28;20440;-57
2023/08/04 06:13:12;;;;;;;8.30;6.03;;;;;;;-143.84;57.11;44900.53;5111352;28;21045;-57
2023/08/04 06:15:41;;;;;;;8.17;6.60;;;;;;;-143.84;56.04;44871.97;5111425;28;20451;-60
2023/08/04 06:18:08;;;;;;;8.57;6.77;;;;;;;-143.84;55.57;44879.59;5112162;28;20442;-60
2023/08/04 06:20:35;;;;;;;11.90;6.53;;;;;;;-143.84;53.89;44860.56;5111920;28;20443;-60
2023/08/04 06:23:02;;;;;;;7.07;6.10;;;;;;;-143.84;53.96;44854.84;5111935;28;20452;-60
2023/08/04 06:25:29;;;;;;;7.43;4.70;;;;;;;-143.84;52.16;44887.22;5111792;28;20447;-60
2023/08/04 06:27:57;;;;;;;6.47;5.70;;;;;;;-143.84;50.65;44871.97;5111887;28;20909;-60
2023/08/04 06:30:25;;;;;;;9.93;5.50;;;;;;;-143.84;50.60;44856.75;5111731;28;20431;-60
2023/08/04 06:32:53;;;;;;;6.97;5.70;;;;;;;-143.84;51.86;44883.41;5111715;28;20494;-60
2023/08/04 06:35:21;;;;;;;5.70;5.20;;;;;;;-143.84;49.26;44881.50;5111813;28;20447;-60
2023/08/04 06:37:48;;;;;;;5.73;5.23;;;;;;;-143.84;49.80;44870.09;5111568;28;20440;-60
2023/08/04 06:40:15;;;;;;;6.40;5.37;;;;;;;-143.84;50.02;44870.09;5111456;28;20443;-60
2023/08/04 06:42:42;;;;;;;9.27;5.67;;;;;;;-143.84;48.25;44858.66;5111506;28;20948;-60
2023/08/04 06:45:09;;;;;;;5.90;4.90;;;;;;;-143.84;48.51;44835.81;5110556;28;20455;-60
2023/08/04 06:47:36;;;;;;;9.57;5.53;;;;;;;-143.84;47.46;44847.22;5111414;28;21002;-60
2023/08/04 06:50:06;;;;;;;10.43;5.23;;;;;;;-143.84;47.43;44868.19;5111279;28;20439;-60
2023/08/04 06:52:33;;;;;;;6.47;5.30;;;;;;;-143.84;47.81;44845.31;5111254;28;20539;-60
2023/08/04 06:55:00;;;;;;;6.13;5.37;;;;;;;-143.84;49.50;44875.78;5111475;28;20622;-60
2023/08/04 06:57:27;;;;;;;7.87;5.30;;;;;;;-143.84;46.35;44871.97;5111601;28;20520;-60
2023/08/04 06:59:54;;;;;;;4.70;4.40;;;;;;;-143.84;46.17;44881.50;5111287;28;20444;-60
2023/08/04 07:02:22;;;;;;;7.43;5.00;;;;;;;-143.84;47.98;44830.09;5111686;28;20439;-60
2023/08/04 07:04:49;;;;;;;5.27;4.97;;;;;;;-143.84;47.40;44820.56;5110848;28;20936;-60
2023/08/04 07:07:18;;;;;;;4.93;4.50;;;;;;;-143.84;46.44;44847.22;5111077;28;20430;-60
2023/08/04 07:09:45;;;;;;;8.73;4.80;;;;;;;-143.84;46.26;44849.13;5110977;28;20501;-60
2023/08/04 07:12:12;;;;;;;9.33;4.93;;;;;;;-143.84;46.78;44839.63;5111109;28;20479;-60
2023/08/04 07:14:39;;;;;;;5.13;4.73;;;;;;;-143.84;45.25;44871.97;5110860;28;20447;-60
2023/08/04 07:17:06;;;;;;;13.90;4.77;;;;;;;-143.84;44.68;44839.63;5111048;28;20505;-60
2023/08/04 07:19:33;;;;;;;5.23;4.40;;;;;;;-143.84;43.10;44854.84;5110702;28;20442;-60
2023/08/04 07:22:00;;;;;;;4.67;4.27;;;;;;;-143.84;42.77;44843.44;5110705;28;20472;-60
2023/08/04 07:24:29;;;;;;;10.20;5.00;;;;;;;-143.84;42.85;44851.03;5110733;28;20439;-60
2023/08/04 07:26:57;;;;;;;5.23;4.43;;;;;;;-143.84;43.11;44820.56;5110544;28;20447;-60
2023/08/04 07:29:24;;;;;;;8.63;4.30;;;;;;;-143.84;43.19;44860.56;5110398;28;20443;-60
2023/08/04 07:31:51;;;;;;;6.50;4.50;;;;;;;-143.84;44.19;44851.03;5110368;28;20956;-60
2023/08/04 07:34:18;;;;;;;3.90;3.60;;;;;;;-143.84;44.01;44835.81;5110210;28;20501;-60
2023/08/04 07:36:45;;;;;;;7.43;4.53;;;;;;;-143.84;43.74;44847.22;5110298;28;20497;-60
2023/08/04 07:39:12;;;;;;;4.00;3.70;;;;;;;-143.84;42.96;44858.66;5110064;28;20936;-60
2023/08/04 07:41:41;;;;;;;5.10;3.83;;;;;;;-143.84;42.47;44832.00;5110456;28;20883;-60
2023/08/04 07:44:08;;;;;;;4.23;3.90;;;;;;;-143.84;42.63;44841.53;5110078;28;20876;-60
2023/08/04 07:46:36;;;;;;;3.90;3.60;;;;;;;-143.84;42.78;44852.94;5109699;28;20439;-60
2023/08/04 07:49:03;;;;;;;4.83;4.43;;;;;;;-143.84;42.48;44845.31;5110119;28;20500;-60
2023/08/04 07:51:30;;;;;;;6.10;4.50;;;;;;;-143.84;41.65;44832.00;5110306;28;20851;-60
2023/08/04 07:53:57;;;;;;;7.50;4.27;;;;;;;-143.84;43.06;44860.56;5110301;28;20462;-60
2023/08/04 07:56:24;;;;;;;3.80;3.50;;;;;;;-143.84;41.12;44851.03;5109728;28;21006;-60
2023/08/04 07:58:52;;;;;;;4.00;3.67;;;;;;;-143.84;41.17;44854.84;5110361;28;20436;-60
2023/08/04 08:01:20;;;;;;;12.40;4.60;;;;;;;-143.84;43.36;44830.09;5110163;28;20499;-60
2023/08/04 08:03:47;;;;;;;5.63;4.40;;;;;;;-143.84;42.14;44837.72;5110089;28;20497;-60
2023/08/04 08:06:14;;;;;;;4.50;4.20;;;;;;;-143.84;40.68;44841.53;5109649;28;20482;-60
2023/08/04 08:08:42;;;;;;;4.47;4.17;;;;;;;-143.84;41.87;44833.91;5110107;28;20451;-60
2023/08/04 08:11:10;;;;;;;11.50;4.17;;;;;;;-143.84;41.45;44843.44;5110020;28;20435;-60
2023/08/04 08:13:37;;;;;;;4.53;4.20;;;;;;;-143.84;42.68;44828.19;5110065;28;20478;-60
2023/08/04 08:16:10;;;;;;;6.80;3.67;;;;;;;-143.84;42.53;44843.44;5109895;28;20491;-60
2023/08/04 08:18:37;;;;;;;5.97;4.80;;;;;;;-143.84;41.53;44812.97;5109902;28;20497;-60
2023/08/04 08:21:07;;;;;;;4.20;3.60;;;;;;;-143.84;42.95;44856.75;5110090;28;20427;-60
2023/08/04 08:23:34;;;;;;;7.83;3.87;;;;;;;-143.84;40.77;44835.81;5110546;28;20490;-60
2023/08/04 08:26:01;;;;;;;5.87;4.10;;;;;;;-143.84;42.90;44839.63;5110214;28;20435;-60
2023/08/04 08:28:28;;;;;;;6.07;4.10;;;;;;;-143.84;42.66;44843.44;5110417;28;20503;-60
2023/08/04 08:30:55;;;;;;;7.53;4.13;;;;;;;-143.84;42.62;44835.81;5110032;28;20427;-60
2023/08/04 08:33:24;;;;;;;4.77;4.30;;;;;;;-143.84;42.54;44828.19;5109710;28;20470;-60
2023/08/04 08:35:51;;;;;;;4.93;3.67;;;;;;;-143.84;42.37;44784.41;5109650;28;20775;-60
2023/08/04 08:38:18;;;;;;;5.10;3.93;;;;;;;-143.84;41.98;44860.56;5109763;28;20443;-60
2023/08/04 08:40:48;;;;;;;4.47;4.07;;;;;;;-143.84;39.96;44833.91;5109523;28;20488;-60
2023/08/04 08:43:15;;;;;;;6.43;4.10;;;;;;;-143.84;40.58;44818.66;5109812;28;20854;-60
2023/08/04 08:45:44;;;;;;;5.30;3.47;;;;;;;-143.84;40.43;44826.28;5109874;28;20446;-60
2023/08/04 08:48:12;;;;;;;4.77;4.27;;;;;;;-143.84;41.12;44793.91;5109675;28;20514;-60
2023/08/04 08:50:43;;;;;;;3.70;3.50;;;;;;;-143.84;38.82;44849.13;5110037;28;20436;-60
2023/08/04 08:53:13;;;;;;;4.53;4.13;;;;;;;-143.84;41.30;44849.13;5109731;28;20531;-60
2023/08/04 08:55:42;;;;;;;4.27;3.87;;;;;;;-143.84;40.08;44824.38;5109611;28;20447;-60
2023/08/04 08:58:10;;;;;;;4.03;3.63;;;;;;;-143.84;39.35;44845.31;5109658;28;20447;-60
2023/08/04 09:00:37;;;;;;;4.60;4.20;;;;;;;-143.84;41.85;44824.38;5109611;28;20465;-60
2023/08/04 09:03:05;;;;;;;3.90;3.50;;;;;;;-143.84;40.27;44835.81;5109455;28;20496;-60
2023/08/04 09:05:32;;;;;;;3.53;3.23;;;;;;;-143.84;41.10;44835.81;5109339;28;20489;-60
2023/08/04 09:08:02;;;;;;;4.20;3.77;;;;;;;-143.84;39.77;44856.75;5109414;28;20435;-60
2023/08/04 09:10:32;;;;;;;3.77;3.47;;;;;;;-143.84;41.00;44841.53;5112882;28;20483;-60
2023/08/04 09:13:00;;;;;;;4.00;3.60;;;;;;;-143.84;39.88;44843.44;5112997;28;20908;-59
2023/08/04 09:15:34;;;;;;;6.97;3.70;;;;;;;-143.84;41.32;44839.63;5113515;28;20512;-60
2023/08/04 09:18:06;;;;;;;4.20;3.80;;;;;;;-143.84;39.70;44812.97;5113203;28;20443;-60
2023/08/04 09:20:33;;;;;;;4.10;3.80;;;;;;;-143.84;41.71;44851.03;5113141;28;20791;-60
2023/08/04 09:23:02;;;;;;;4.17;3.87;;;;;;;-143.84;39.91;44862.47;5112259;28;20447;-59
2023/08/04 09:25:29;;;;;;;6.00;3.57;;;;;;;-143.84;40.57;44854.84;5112793;28;20439;-60
2023/08/04 09:27:56;;;;;;;9.00;4.10;;;;;;;-143.84;41.30;44837.72;5112993;28;20442;-60
2023/08/04 09:30:24;;;;;;;12.40;3.70;;;;;;;-143.84;39.93;44851.03;5112846;28;20435;-59
2023/08/04 09:32:52;;;;;;;4.73;4.10;;;;;;;-143.84;40.52;44852.94;5113066;28;20557;-59
2023/08/04 09:35:19;;;;;;;3.83;3.47;;;;;;;-143.84;41.05;44833.91;5113210;28;20472;-60
2023/08/04 09:37:46;;;;;;;5.73;3.57;;;;;;;-143.84;39.12;44854.84;5112829;28;20488;-59
2023/08/04 09:40:18;;;;;;;4.53;4.20;;;;;;;-143.84;40.17;44820.56;5113079;28;20865;-59
2023/08/04 09:42:46;;;;;;;4.00;3.70;;;;;;;-143.84;41.32;44832.00;5112651;28;20431;-59
2023/08/04 09:45:15;;;;;;;5.53;4.20;;;;;;;-143.84;40.40;44862.47;5112644;28;20925;-59
2023/08/04 09:47:47;;;;;;;4.53;4.07;;;;;;;-143.84;40.70;44879.59;5112696;28;20435;-59
2023/08/04 09:50:15;;;;;;;3.50;3.30;;;;;;;-143.84;39.39;44866.28;5112655;28;20431;-59
2023/08/04 09:52:42;;;;;;;5.57;4.30;;;;;;;-143.84;40.57;44862.47;5112339;28;20439;-60
2023/08/04 09:55:10;;;;;;;5.23;4.83;;;;;;;-143.84;39.37;44883.41;5112720;28;20443;-59
2023/08/04 09:57:39;;;;;;;4.27;3.83;;;;;;;-143.84;40.51;44851.03;5112485;28;20439;-59
2023/08/04 10:00:08;;;;;;;5.40;3.87;;;;;;;-143.84;40.61;44837.72;5111706;28;20439;-59
2023/08/04 10:02:36;;;;;;;11.00;4.70;;;;;;;-143.84;40.46;44828.19;5111941;28;20430;-59
2023/08/04 10:05:04;;;;;;;3.50;3.30;;;;;;;-143.84;40.23;44852.94;5111678;28;20483;-59
2023/08/04 10:07:32;;;;;;;17.60;4.13;;;;;;;-143.84;41.09;44866.28;5112297;28;20439;-59
2023/08/04 10:10:00;;;;;;;4.50;4.20;;;;;;;-143.84;42.82;44847.22;5112448;28;20448;-59
2023/08/04 10:12:29;;;;;;;4.73;4.23;;;;;;;-143.84;41.54;44843.44;5111936;28;20439;-59
2023/08/04 10:14:58;;;;;;;4.23;3.97;;;;;;;-143.84;39.57;44851.03;5111900;28;20509;-59
2023/08/04 10:17:27;;;;;;;5.87;4.13;;;;;;;-143.84;39.33;44841.53;5111952;28;20807;-59
2023/08/04 10:20:05;;;;;;;4.87;4.57;;;;;;;-143.84;41.17;44873.88;5111424;28;20432;-59
2023/08/04 10:22:33;;;;;;;4.47;4.07;;;;;;;-143.84;40.59;44854.84;5112125;28;20805;-59
2023/08/04 10:25:01;;;;;;;5.53;4.43;;;;;;;-143.84;41.71;44839.63;5111753;28;21313;-59
2023/08/04 10:27:28;;;;;;;5.17;4.60;;;;;;;-143.84;40.81;44870.09;5111820;28;20439;-59
2023/08/04 10:30:10;;;;;;;5.63;4.20;;;;;;;-143.84;40.74;44835.81;5111953;28;20447;-59
2023/08/04 10:32:39;;;;;;;5.90;4.23;;;;;;;-143.84;39.80;44877.69;5111527;28;20501;-59
2023/08/04 10:35:08;;;;;;;5.73;4.27;;;;;;;-143.84;40.03;44877.69;5111271;28;20482;-59
2023/08/04 10:37:50;;;;;;;8.40;5.33;;;;;;;-143.84;41.09;44852.94;5111669;28;20446;-59
2023/08/04 10:40:28;;;;;;;4.67;4.30;;;;;;;-143.84;39.32;44860.56;5111524;28;20517;-59
2023/08/04 10:43:00;;;;;;;11.27;4.23;;;;;;;-143.84;39.49;44883.41;5111139;28;20538;-59
2023/08/04 10:46:03;;;;;;;5.53;4.30;;;;;;;-143.84;38.93;44843.44;5111348;28;20435;-59
2023/08/04 10:48:35;;;;;;;4.63;4.20;;;;;;;-143.84;38.23;44858.66;5111198;28;20452;-59
2023/08/04 10:51:02;;;;;;;4.20;3.80;;;;;;;-143.84;38.44;44877.69;5110988;28;20972;-59
2023/08/04 10:53:36;;;;;;;3.90;3.60;;;;;;;-143.84;37.94;44870.09;5111256;28;20479;-59
2023/08/04 10:56:07;;;;;;;4.90;3.53;;;;;;;-143.84;37.65;44856.75;5111043;28;20435;-59
2023/08/04 10:58:35;;;;;;;5.27;4.03;;;;;;;-143.84;37.78;44835.81;5110864;28;20526;-59
2023/08/04 11:01:04;;;;;;;4.57;4.17;;;;;;;-143.84;37.27;44843.44;5111218;28;20435;-59
2023/08/04 11:03:33;;;;;;;5.30;4.10;;;;;;;-143.84;36.21;44870.09;5111199;28;20501;-59
2023/08/04 11:06:00;;;;;;;10.27;3.90;;;;;;;-143.84;36.37;44866.28;5110740;28;21108;-58
2023/08/04 11:08:28;;;;;;;5.43;4.20;;;;;;;-143.84;37.23;44870.09;5110770;28;20444;-59
2023/08/04 11:10:57;;;;;;;4.67;4.27;;;;;;;-143.84;34.96;44856.75;5111038;28;20936;-59
2023/08/04 11:13:26;;;;;;;4.97;4.23;;;;;;;-143.84;35.44;44883.41;5110691;28;20536;-59